Terminal Aerodrome Forecast
Issued by NWS Flagstaff, AZ

Home | Current Version | Previous Version | Text Only | Print | Product List | Glossary On
Versions: 1 2 3 4 5 6 7 8 9 10 11 12 13 14 15 16
068
FTUS45 KFGZ 250531
TAFFLG
TAF
KFLG 250531Z 2506/2606 23012G20KT P6SM SCT130
      TEMPO 2507/2511 23010KT
     FM251500 22022G33KT P6SM SKC
     FM260300 23012G22KT P6SM SCT250=

USA.gov is the U.S. government's official web portal to all federal, state and local government web resources and services.